Saint Médard d'Aunis (17)                   Novembre 2012                      
  Température (°C) - Abri Young à ventilation mécanique 43502 Humidité Vent (km/h) Précipitations (mm) Pression (hPa) Divers  
Date Maxi Mini Moy de 1440 relevés Moy (tx+tn)/2 Index chaleur moyen Index chaleur maxi Froid dû au vent moy  Froid dû au vent mini/1min   Amplitude (Tx-Tn) Tx OMM/1min Tn OMM/1min Tm OMM/1min Relative maxi Relative mini Relative moy de 1440 relevés Relative moy (hx+hn)/2 Point de rosée maxi Point de rosée mini Point de rosée moy 1440 relevés Vent moy maxi (10min) Vent  moyen (24h) Direction dominante Rafales (km/h) maxi Direction rafale maxi Rafales moy (24h) Total du jour (mm) Durée en heures et dixièmes Intensité maxi sur 1 min (mm/h) Maxi Mini Moy de 1440 relevés Moy (px+pn)/2 Variation Epaisseur neige (cm) Remarques diverses  
01/11/2012 13,8 8,2 11,13 11,00 11,02 13,6 7,61 3,8 5,6 13,7 8,2 10,95 95% 61% 80,3% 78,0% 11,6 3,9 7,81 46,99 24,60 W 83,7 WSW 31,23 8,2 2,6 24,0 1001,9 987,3 993,51 994,60 14,6   Ciel entre 5/8 et 8/8, averses  
02/11/2012 15,2 8,1 11,54 11,65 11,65 15,1 9,08 4,7 7,1 15,1 8,1 11,60 97% 75% 91,7% 86,0% 13,7 6,2 10,22 44,90 18,16 WSW 69,2 SW 23,44 38,6 7,8 108,0 1004,9 1000,9 1002,78 1002,90 4,0   Ciel 4/8 à 8/8, averses, tonnerre, pluie  
03/11/2012 15,3 10,6 12,52 12,95 12,64 15,3 11,16 8,9 4,7 15,2 10,7 12,95 97% 86% 93,5% 91,5% 13,7 10,1 11,49 40,72 12,66 WSW 61,2 WSW 16,79 12,4 3,3 24,0 1006,1 1003,0 1004,58 1004,55 3,1   Ciel 8/8, pluie, 7/8 le soir  
04/11/2012 13,5 8,9 11,49 11,20 11,44 12,9 8,89 6,4 4,6 13,4 8,9 11,15 97% 59% 84,0% 78,0% 11,1 5,1 8,77 37,81 18,12 WSW 54,7 WNW 22,92 5,8 1,6 36,0 1005,1 1001,1 1003,45 1003,10 4,0   Ciel entre 5/8 et 8/8, pluie, averses  
05/11/2012 15,1 6,7 10,32 10,90 10,26 14,6 8,46 3,3 8,4 14,9 6,8 10,85 94% 61% 83,5% 77,5% 10,0 5,0 7,51 32,36 13,10 W 56,3 WNW 16,37 7,4 1,3 60,0 1013,2 1004,3 1009,43 1008,75 8,9   Ciel entre 4/8 et 8/8, averses, orage  
06/11/2012 12,2 1,4 7,31 6,80 7,22 11,5 5,16 1,3 10,8 12,1 1,5 6,80 94% 59% 83,6% 76,5% 8,6 0,5 4,57 38,93 13,86 N 57,9 NNW 18,32 6,8 1,4 24,0 1031,8 1011,2 1024,22 1021,50 20,6   Ciel 8/8 à 0/8 le matin, averses, 0/8 à 3/8 l'après-midi  
07/11/2012 13,2 0,4 6,13 6,80 6,01 12,4 5,62 -0,7 12,8 13,0 0,6 6,80 97% 59% 86,0% 78,0% 7,0 -0,2 3,75 11,46 4,34 S 16,1 S 5,98 0,2 0,1 12,0 1033,0 1025,8 1030,53 1029,40 7,2   Ciel 0/8 à 2/8, voilé  
08/11/2012 11,6 4,7 7,84 8,15 7,85 11,4 7,09 3,5 6,9 11,6 4,8 8,20 94% 77% 88,0% 85,5% 8,0 3,6 5,94 12,58 5,85 ENE 19,3 NE 8,35 0,2 0,1 12,0 1025,8 1017,9 1021,66 1021,85 7,9   Ciel 4/8 à 7/8 le matin, 7/8 à 8/8 l'après-midi  
09/11/2012 13,5 5,7 10,29 9,60 10,36 13,6 9,67 3,8 7,8 13,5 5,7 9,60 97% 83% 91,5% 90,0% 12,9 4,5 8,95 15,46 6,91 SSE 22,5 S 9,41 0,0 0,0 0,0 1018,2 1008,1 1012,69 1013,15 10,1   Ciel 4/8 à 7/8 le matin, entre 7/8 et 8/8 ensuite, traces de précipitations  
10/11/2012 14,1 4,6 10,47 9,35 10,62 14,2 9,57 4,0 9,5 14,1 4,7 9,40 98% 84% 94,0% 91,0% 13,1 3,8 9,54 29,12 8,55 S 45,1 WSW 11,47 9,4 2,2 36,0 1008,1 1002,5 1004,86 1005,30 5,6   Ciel entre 5/8 et 8/8, averses  
11/11/2012 12,6 0,3 7,12 6,45 7,06 12,1 6,47 0,3 12,3 12,6 0,3 6,45 97% 62% 87,3% 79,5% 8,0 -0,7 5,01 13,06 5,18 N 22,5 NW 7,04 3,0 0,8 12,0 1024,8 1007,1 1015,66 1015,95 17,7   Ciel 8/8 à 0/8 le matin, averses, 0/8 à 2/8 l'après-midi  
12/11/2012 12,7 -0,7 6,13 6,00 6,10 12,4 5,78 -1,1 13,4 12,7 -0,6 6,05 97% 72% 89,1% 84,5% 8,5 -1,5 4,40 9,35 3,91 SSE 12,9 SSE 5,24 0,2 0,1 12,0 1030,5 1024,8 1027,94 1027,65 5,7   Ciel 3/8 à 6/8 le matin, entre 6/8 et 8/8 l'après-midi  
13/11/2012 13,2 1,4 6,68 7,30 6,52 12,6 5,70 0,8 11,8 13,1 1,4 7,25 97% 61% 83,5% 79,0% 7,5 0,7 3,87 24,12 7,07 ENE 35,4 NE 10,05 0,2 0,1 12,0 1030,4 1024,2 1027,55 1027,30 6,2   Ciel 4/8 à 2/8  
14/11/2012 14,0 2,1 7,37 8,05 7,33 13,7 6,41 -0,2 11,9 13,9 2,2 8,05 96% 70% 87,1% 83,0% 9,6 1,3 5,28 11,13 6,45 ENE 19,3 ENE 9,31 0,2 0,1 12,0 1024,3 1021,1 1022,38 1022,70 3,2   Ciel 0/8  
15/11/2012 17,9 5,7 10,78 11,80 10,79 17,7 10,53 4,4 12,2 17,8 5,8 11,80 96% 68% 86,3% 82,0% 12,4 4,9 8,46 12,58 5,20 ENE 20,9 SE 7,55 0,0 0,0 0,0 1022,1 1018,2 1020,22 1020,15 3,9   Ciel 5/8 à 2/8 le matin, 2/8 à 3/8 l'après-midi  
16/11/2012 17,3 4,7 10,41 11,00 10,48 17,4 9,90 3,2 12,6 17,3 4,7 11,00 98% 74% 90,3% 86,0% 13,3 4,1 8,80 13,06 6,64 SSE 19,3 ESE 8,99 0,2 0,1 12,0 1018,2 1012,0 1014,91 1015,10 6,2   Ciel 2/8 à 0/8, 4/8 le soir  
17/11/2012 16,1 8,1 11,60 12,10 11,73 16,1 10,85 7,4 8,0 16,1 8,2 12,15 97% 79% 90,7% 88,0% 12,8 7,3 10,10 20,42 8,50 SE 30,6 SSE 11,39 0,4 0,2 12,0 1012,2 1008,1 1009,59 1010,15 4,1   Ciel entre 4/8 et 8/8, faibles averses  
18/11/2012 11,6 9,5 10,42 10,55 10,69 11,7 9,18 6,6 2,1 11,5 9,6 10,55 97% 95% 96,4% 96,0% 11,0 8,9 9,87 18,34 9,34 N 27,4 NNE 12,54 24,4 6,8 24,0 1015,5 1009,1 1012,57 1012,30 6,4   Ciel 8/8, pluie  
19/11/2012 13,3 5,4 9,70 9,35 9,79 13,1 8,99 4,6 7,9 13,2 5,6 9,40 97% 66% 89,6% 81,5% 11,2 3,7 8,01 17,38 6,77 SSE 25,7 SW 9,16 0,4 0,2 12,0 1016,9 1015,0 1016,03 1015,95 1,9   Ciel entre 6/8 et 8/8, averses faibles  
20/11/2012 13,4 4,8 9,35 9,10 9,33 13,2 8,06 2,6 8,6 13,4 4,8 9,10 96% 76% 86,8% 86,0% 9,8 3,9 7,20 23,14 9,35 SE 45,1 SE 12,97 0,2 0,1 12,0 1016,8 1009,5 1014,75 1013,15 7,3   Ciel entre 4/8 et 7/8, averses faibles le soir  
21/11/2012 14,7 3,9 10,10 9,30 10,07 14,3 8,20 3,7 10,8 14,6 3,9 9,25 96% 70% 86,1% 83,0% 12,1 3,1 7,82 32,20 13,95 W 49,9 S 17,34 2,2 0,8 12,0 1024,4 1009,4 1017,24 1016,90 15,0   Cielentre 5/8 et 8/8 le matin, averses, 6/8 à 2/8 ensuite  
22/11/2012 13,7 3,2 8,25 8,45 8,23 13,3 6,65 2,6 10,5 13,7 3,3 8,50 97% 66% 88,0% 81,5% 9,5 2,7 6,29 19,46 10,36 SSE 29,0 S 13,44 0,2 0,1 12,0 1024,3 1017,7 1021,55 1021,00 6,6   Ciel entre 0/8 et 3/8 le matin, 1/8 à 6/8 l'après-midi  
23/11/2012 13,3 8,4 10,35 10,85 10,41 13,2 8,24 5,1 4,9 13,2 8,4 10,80 92% 82% 88,0% 87,0% 10,6 6,9 8,44 20,90 14,12 SSE 32,2 S 17,99 0,0 0,0 0,0 1018,3 1016,1 1017,24 1017,20 2,2   Ciel entre 7/8 et 8/8  
24/11/2012 16,4 9,7 12,79 13,05 12,69 15,9 9,74 6,9 6,7 16,3 9,8 13,05 91% 62% 81,4% 76,5% 11,5 8,1 9,58 43,78 23,49 SSE 61,2 WSW 30,70 0,0 0,0 0,0 1016,3 1007,9 1012,02 1012,10 8,4   Ciel 7/8 à 8/8 le matin, entre 4/8 et 8/8 l'après-midi  
25/11/2012 13,9 7,5 11,05 10,70 11,02 13,5 9,55 6,1 6,4 13,8 7,6 10,70 93% 71% 84,5% 82,0% 9,9 5,7 8,49 39,58 12,14 S 53,1 W 15,36 0,0 0,0 0,0 1020,0 1010,3 1016,52 1015,15 9,7   Ciel entre 7/8 et 8/8  
26/11/2012 13,6 4,8 10,52 9,20 10,37 13,1 7,69 2,9 8,8 13,6 4,9 9,25 96% 64% 79,8% 80,0% 10,6 2,7 7,09 33,65 18,75 W 49,9 W 23,11 0,0 0,0 0,0 1010,4 1008,0 1008,96 1009,20 2,4   Ciel entre 4/8 et 7/8 le matin, traces de précip, 2/8 l'après-midi  
27/11/2012 11,8 2,5 7,74 7,15 7,74 11,4 6,95 0,9 9,3 11,6 2,7 7,15 96% 70% 87,1% 83,0% 8,1 1,8 5,67 13,86 6,08 N 24,1 SSW 8,08 3,0 0,7 36,0 1007,9 1004,5 1006,24 1006,20 3,4   Ciel entre 1/8 et 8/8 le matin, averses, 5/8 à 6/8 l'après-midi  
28/11/2012 10,4 4,5 7,31 7,45 7,27 10,1 3,95 0,0 5,9 10,3 4,6 7,45 93% 69% 84,8% 81,0% 6,2 2,6 4,89 32,36 18,92 N 51,5 N 24,91 0,0 0,0 0,0 1012,7 1007,3 1009,20 1010,00 5,4   Ciel entre 6/8 et 8/8  
29/11/2012 8,3 -0,9 4,41 3,70 4,22 7,8 1,49 -3,3 9,2 8,2 -0,8 3,70 91% 58% 79,6% 74,5% 2,9 -2,5 1,07 22,98 13,52 NNW 32,2 NNW 17,29 0,2 0,1 12,0 1015,1 1011,3 1013,06 1013,20 3,8   Ciel entre 0/8 et 5/8  
30/11/2012 5,9 -2,9 0,81 1,50 0,72 5,7 -0,08 -5,0 8,8 5,8 -2,8 1,50 95% 79% 90,3% 87,0% 3,3 -3,9 -0,62 8,20 3,69 N 14,5 ESE 5,33 0,2 0,1 12,0 1016,0 1010,3 1012,66 1013,15 5,7   Ciel entre 4/8 et 6/8, 3/8 le soir  
                                                                         
  Température (°C) - Abri Young à ventilation mécanique 43502 Humidité Vent (km/h) Précipitations (mm) Pression (hPa) Divers  
  Maxi Mini Moy de 1440 relevés Moy (tx+tn)/2 Index chaleur moyen Index chaleur maxi Froid dû au vent moy  Froid dû au vent mini/1min   Amplitude (Tx-Tn) Tx OMM/1min Tn OMM/1min Tm OMM/1min Relative maxi Relative mini Relative moy de 1440 relevés Relative moy (hx+hn)/2 Point de rosée maxi Point de rosée mini Point de rosée moy 1440 relevés Vent moy maxi (10min) Vent  moyen (24h) Direction dominante Rafales (km/h) maxi Direction rafale maxi Rafales moy (24h) Total du jour (mm) Durée en heures et dixièmes Intensité maxi sur 1 min (mm/h) Maxi Mini Moy de 1440 relevés Moy (px+pn)/2 Variation Epaisseur neige (cm) Remarques diverses  
Maxi 17,9 10,6 12,79 13,05 12,69 17,7 11,16 8,9 13,4 17,8 10,7 13,05 98% 95% 96,4% 96,0% 13,7 10,1 11,49 46,99 24,60 SSE 83,7 WSW 31,23 38,6 7,8 108,0 1033,0 1025,8 1030,53 1029,40 20,6 0,0    
Mini 5,9 -2,9 0,81 1,50 0,72 5,7 -0,08 -5,0 2,1 5,8 -2,8 1,50 91% 58% 79,6% 74,5% 2,9 -3,9 -0,62 8,20 3,69   12,9   5,24       1001,9 987,3 993,51 994,60 1,9      
Moy 13,39 4,71 9,06 9,05 9,05 13,10 7,55 2,92 8,68 13,31 4,79 9,05 95,6% 70,6% 87,1% 83,1% 9,95 3,41 6,94 24,66 10,99   38,09   14,40       1017,51 1010,47 1014,13 1013,99 7,04      
Total                                                   124,0 30,5             0,0    
 
  Observations      
Jours Rafales >= 36,0 km/h Rafales >= 57,6 km/h Rafales >= 75,6 km/h Rafales >= 100,8 km/h Précipi. >= 0,1 mm Précipi. >= 1,0 mm Précipi. >= 5,0 mm Précipi. >= 10,0 mm Tx <= 0 Tx >= 25 Tx >= 30 Tx >= 35 Tx >= 40 Tn <= 0 Tn <= -5 Tn <= -10 Tn <= -15 T moy <= 0 T moy <=     -5 T moy >= 20 T moy >= 25 T moy >= 30 Grêle Grésil Brouillard Brume Orage Neige        
01/11/2012 1 1 1 0 1 1 1 0 0 0 0 0 0 0 0 0 0 0 0 0 0 0 0 0 0 0 0 0    
02/11/2012 1 1 0 0 1 1 1 1 0 0 0 0 0 0 0 0 0 0 0 0 0 0 0 0 0 0 1 0    
03/11/2012 1 1 0 0 1 1 1 1 0 0 0 0 0 0 0 0 0 0 0 0 0 0 0 0 0 0 0 0    
04/11/2012 1 0 0 0 1 1 1 0 0 0 0 0 0 0 0 0 0 0 0 0 0 0 0 0 0 0 0 0    
05/11/2012 1 0 0 0 1 1 1 0 0 0 0 0 0 0 0 0 0 0 0 0 0 0 0 0 0 0 1 0    
06/11/2012 1 1 0 0 1 1 1 0 0 0 0 0 0 0 0 0 0 0 0 0 0 0 0 0 0 0 0 0    
07/11/2012 0 0 0 0 1 0 0 0 0 0 0 0 0 0 0 0 0 0 0 0 0 0 0 0 0 0 0 0    
08/11/2012 0 0 0 0 1 0 0 0 0 0 0 0 0 0 0 0 0 0 0 0 0 0 0 0 0 0 0 0    
09/11/2012 0 0 0 0 0 0 0 0 0 0 0 0 0 0 0 0 0 0 0 0 0 0 0 0 0 0 0 0    
10/11/2012 1 0 0 0 1 1 1 0 0 0 0 0 0 0 0 0 0 0 0 0 0 0 0 0 0 0 0 0    
11/11/2012 0 0 0 0 1 1 0 0 0 0 0 0 0 0 0 0 0 0 0 0 0 0 0 0 0 0 0 0    
12/11/2012 0 0 0 0 1 0 0 0 0 0 0 0 0 1 0 0 0 0 0 0 0 0 0 0 0 0 0 0    
13/11/2012 0 0 0 0 1 0 0 0 0 0 0 0 0 0 0 0 0 0 0 0 0 0 0 0 0 0 0 0    
14/11/2012 0 0 0 0 1 0 0 0 0 0 0 0 0 0 0 0 0 0 0 0 0 0 0 0 0 0 0 0    
15/11/2012 0 0 0 0 0 0 0 0 0 0 0 0 0 0 0 0 0 0 0 0 0 0 0 0 0 0 0 0    
16/11/2012 0 0 0 0 1 0 0 0 0 0 0 0 0 0 0 0 0 0 0 0 0 0 0 0 0 0 0 0    
17/11/2012 0 0 0 0 1 0 0 0 0 0 0 0 0 0 0 0 0 0 0 0 0 0 0 0 0 0 0 0    
18/11/2012 0 0 0 0 1 1 1 1 0 0 0 0 0 0 0 0 0 0 0 0 0 0 0 0 0 0 0 0    
19/11/2012 0 0 0 0 1 0 0 0 0 0 0 0 0 0 0 0 0 0 0 0 0 0 0 0 0 0 0 0    
20/11/2012 1 0 0 0 1 0 0 0 0 0 0 0 0 0 0 0 0 0 0 0 0 0 0 0 0 0 0 0    
21/11/2012 1 0 0 0 1 1 0 0 0 0 0 0 0 0 0 0 0 0 0 0 0 0 0 0 0 0 0 0    
22/11/2012 0 0 0 0 1 0 0 0 0 0 0 0 0 0 0 0 0 0 0 0 0 0 0 0 0 0 0 0    
23/11/2012 0 0 0 0 0 0 0 0 0 0 0 0 0 0 0 0 0 0 0 0 0 0 0 0 0 0 0 0    
24/11/2012 1 1 0 0 0 0 0 0 0 0 0 0 0 0 0 0 0 0 0 0 0 0 0 0 0 0 0 0    
25/11/2012 1 0 0 0 0 0 0 0 0 0 0 0 0 0 0 0 0 0 0 0 0 0 0 0 0 0 0 0    
26/11/2012 1 0 0 0 0 0 0 0 0 0 0 0 0 0 0 0 0 0 0 0 0 0 0 0 0 0 0 0    
27/11/2012 0 0 0 0 1 1 0 0 0 0 0 0 0 0 0 0 0 0 0 0 0 0 0 0 0 0 0 0    
28/11/2012 1 0 0 0 0 0 0 0 0 0 0 0 0 0 0 0 0 0 0 0 0 0 0 0 0 0 0 0    
29/11/2012 0 0 0 0 1 0 0 0 0 0 0 0 0 1 0 0 0 0 0 0 0 0 0 0 0 0 0 0    
30/11/2012 0 0 0 0 1 0 0 0 0 0 0 0 0 1 0 0 0 0 0 0 0 0 0 0 0 0 0 0    
                                                             
   
  Rafales >= 36,0 km/h Rafales >= 57,6 km/h Rafales >= 75,6 km/h Rafales >= 100,8 km/h Précipi. >= 0,1 mm Précipi. >= 1,0 mm Précipi. >= 5,0 mm Précipi. >= 10,0 mm Tx <=0 Tx >= 25 Tx >= 30 Tx >= 35 Tx >= 40 Tn <= 0 Tn <= -5 Tn <= -10 Tn <= -15 T moy <= 0 T moy <=  -5 T moy >= 20 T moy >= 25 T moy >= 30 Grêle Grésil Brouillard Brume Orage Neige        
Total 13 5 1 0 23 11 8 3 0 0 0 0 0 3 0 0 0 0 0 0 0 0 0 0 0 0 2 0